Apple Valley, North Dakota
Current Conditions -  °F | °C
As of 7:52 PM on Wednesday 26 Nov 2014 (Local Time) from KBIS Reporting Station
Clear Clear  
Wind Chill: -19°   Ceiling: Unl
Heat Index: -6°   Visibility: 10mi
Dew Point: -11°   Wind: 6mph
Humidity: 79%   Direction: 60°ENE
Pressure: 30.46"   Gusts: NA
Location:  46.8954°N, 100.519°W
Report Text: KBIS 270152Z AUTO 06005KT 10SM CLR M21/M24 A3046 RMK AO2 SLP363 I1000 T12111239
Loading
Personal Weather Stations






























Interactive Weather Map New forecast layout! Learn more

10-Day Weather Forecast

Advertisements
Track Severe Weather on mobile